sensor_id;sensor_type;location;lat;lon;timestamp;temperature;humidity
3705;DHT22;1868;48.918;9.438;2022-12-18T00:00:08;-10.60;97.40
3705;DHT22;1868;48.918;9.438;2022-12-18T00:02:40;-10.70;97.40
3705;DHT22;1868;48.918;9.438;2022-12-18T00:05:08;-10.70;97.40
3705;DHT22;1868;48.918;9.438;2022-12-18T00:07:37;-10.80;97.40
3705;DHT22;1868;48.918;9.438;2022-12-18T00:10:06;-10.80;97.40
3705;DHT22;1868;48.918;9.438;2022-12-18T00:12:35;-10.80;97.40
3705;DHT22;1868;48.918;9.438;2022-12-18T00:15:05;-10.90;97.40
3705;DHT22;1868;48.918;9.438;2022-12-18T00:17:35;-10.90;97.40
3705;DHT22;1868;48.918;9.438;2022-12-18T00:20:03;-10.90;97.40
3705;DHT22;1868;48.918;9.438;2022-12-18T00:22:32;-11.00;97.40
3705;DHT22;1868;48.918;9.438;2022-12-18T00:25:00;-11.00;97.40
3705;DHT22;1868;48.918;9.438;2022-12-18T00:27:32;-11.00;97.40
3705;DHT22;1868;48.918;9.438;2022-12-18T00:30:00;-11.00;97.40
3705;DHT22;1868;48.918;9.438;2022-12-18T00:32:29;-11.00;97.40
3705;DHT22;1868;48.918;9.438;2022-12-18T00:34:58;-11.00;97.40
3705;DHT22;1868;48.918;9.438;2022-12-18T00:37:26;-11.00;97.40
3705;DHT22;1868;48.918;9.438;2022-12-18T00:39:54;-11.00;97.40
3705;DHT22;1868;48.918;9.438;2022-12-18T00:42:22;-11.00;97.40
3705;DHT22;1868;48.918;9.438;2022-12-18T00:45:08;-11.00;97.40
3705;DHT22;1868;48.918;9.438;2022-12-18T00:47:40;-11.00;97.40
3705;DHT22;1868;48.918;9.438;2022-12-18T00:50:09;-11.00;97.40
3705;DHT22;1868;48.918;9.438;2022-12-18T00:52:41;-11.00;97.40
3705;DHT22;1868;48.918;9.438;2022-12-18T00:55:09;-11.00;97.40
3705;DHT22;1868;48.918;9.438;2022-12-18T00:57:38;-11.00;97.40
3705;DHT22;1868;48.918;9.438;2022-12-18T01:00:08;-11.00;97.40
3705;DHT22;1868;48.918;9.438;2022-12-18T01:02:39;-11.00;97.40
3705;DHT22;1868;48.918;9.438;2022-12-18T01:05:09;-11.00;97.40
3705;DHT22;1868;48.918;9.438;2022-12-18T01:07:39;-11.00;97.40
3705;DHT22;1868;48.918;9.438;2022-12-18T01:10:09;-11.00;97.40
3705;DHT22;1868;48.918;9.438;2022-12-18T01:12:38;-11.00;97.40
3705;DHT22;1868;48.918;9.438;2022-12-18T01:15:08;-11.10;97.40
3705;DHT22;1868;48.918;9.438;2022-12-18T01:17:37;-11.10;97.40
3705;DHT22;1868;48.918;9.438;2022-12-18T01:20:08;-11.10;97.40
3705;DHT22;1868;48.918;9.438;2022-12-18T01:22:37;-11.20;97.40
3705;DHT22;1868;48.918;9.438;2022-12-18T01:25:07;-11.20;97.40
3705;DHT22;1868;48.918;9.438;2022-12-18T01:27:36;-11.20;97.40
3705;DHT22;1868;48.918;9.438;2022-12-18T01:30:05;-11.20;97.40
3705;DHT22;1868;48.918;9.438;2022-12-18T01:32:34;-11.20;97.40
3705;DHT22;1868;48.918;9.438;2022-12-18T01:35:03;-11.20;97.40
3705;DHT22;1868;48.918;9.438;2022-12-18T01:37:33;-11.20;97.40
3705;DHT22;1868;48.918;9.438;2022-12-18T01:40:01;-11.20;97.40
3705;DHT22;1868;48.918;9.438;2022-12-18T01:42:30;-11.20;97.40
3705;DHT22;1868;48.918;9.438;2022-12-18T01:45:08;-11.20;97.40
3705;DHT22;1868;48.918;9.438;2022-12-18T01:47:52;-11.20;97.40
3705;DHT22;1868;48.918;9.438;2022-12-18T01:50:24;-11.20;97.40
3705;DHT22;1868;48.918;9.438;2022-12-18T01:52:59;-11.20;97.40
3705;DHT22;1868;48.918;9.438;2022-12-18T01:55:31;-11.20;97.40
3705;DHT22;1868;48.918;9.438;2022-12-18T01:58:01;-11.20;97.40
3705;DHT22;1868;48.918;9.438;2022-12-18T02:00:29;-11.20;97.40
3705;DHT22;1868;48.918;9.438;2022-12-18T02:02:58;-11.20;97.40
3705;DHT22;1868;48.918;9.438;2022-12-18T02:05:45;-11.20;97.40
3705;DHT22;1868;48.918;9.438;2022-12-18T02:08:24;-11.20;97.40
3705;DHT22;1868;48.918;9.438;2022-12-18T02:11:02;-11.20;97.40
3705;DHT22;1868;48.918;9.438;2022-12-18T02:13:40;-11.20;97.40
3705;DHT22;1868;48.918;9.438;2022-12-18T02:16:18;-11.30;97.40
3705;DHT22;1868;48.918;9.438;2022-12-18T02:18:53;-11.30;97.40
3705;DHT22;1868;48.918;9.438;2022-12-18T02:21:31;-11.30;97.40
3705;DHT22;1868;48.918;9.438;2022-12-18T02:24:17;-11.30;97.40
3705;DHT22;1868;48.918;9.438;2022-12-18T02:26:51;-11.30;97.40
3705;DHT22;1868;48.918;9.438;2022-12-18T02:29:27;-11.30;97.40
3705;DHT22;1868;48.918;9.438;2022-12-18T02:32:02;-11.30;97.40
3705;DHT22;1868;48.918;9.438;2022-12-18T02:34:37;-11.20;97.40
3705;DHT22;1868;48.918;9.438;2022-12-18T02:37:13;-11.20;97.40
3705;DHT22;1868;48.918;9.438;2022-12-18T02:39:46;-11.20;97.40
3705;DHT22;1868;48.918;9.438;2022-12-18T02:42:18;-11.10;97.40
3705;DHT22;1868;48.918;9.438;2022-12-18T02:44:49;-11.20;97.40
3705;DHT22;1868;48.918;9.438;2022-12-18T02:47:24;-11.10;97.40
3705;DHT22;1868;48.918;9.438;2022-12-18T02:50:04;-11.10;97.40
3705;DHT22;1868;48.918;9.438;2022-12-18T02:52:42;-11.10;97.40
3705;DHT22;1868;48.918;9.438;2022-12-18T02:55:28;-11.00;97.40
3705;DHT22;1868;48.918;9.438;2022-12-18T02:58:13;-11.00;97.40
3705;DHT22;1868;48.918;9.438;2022-12-18T03:00:53;-11.00;97.40
3705;DHT22;1868;48.918;9.438;2022-12-18T03:03:31;-11.00;97.40
3705;DHT22;1868;48.918;9.438;2022-12-18T03:06:06;-10.90;97.40
3705;DHT22;1868;48.918;9.438;2022-12-18T03:08:40;-10.90;97.40
3705;DHT22;1868;48.918;9.438;2022-12-18T03:11:11;-10.90;97.40
3705;DHT22;1868;48.918;9.438;2022-12-18T03:13:46;-10.90;97.40
3705;DHT22;1868;48.918;9.438;2022-12-18T03:16:22;-10.90;97.40
3705;DHT22;1868;48.918;9.438;2022-12-18T03:18:54;-10.90;97.40
3705;DHT22;1868;48.918;9.438;2022-12-18T03:21:28;-10.90;97.40
3705;DHT22;1868;48.918;9.438;2022-12-18T03:23:58;-10.90;97.40
3705;DHT22;1868;48.918;9.438;2022-12-18T03:26:28;-10.80;97.40
3705;DHT22;1868;48.918;9.438;2022-12-18T03:29:07;-10.80;97.40
3705;DHT22;1868;48.918;9.438;2022-12-18T03:31:37;-10.80;97.40
3705;DHT22;1868;48.918;9.438;2022-12-18T03:34:11;-10.80;97.40
3705;DHT22;1868;48.918;9.438;2022-12-18T03:36:45;-10.80;97.40
3705;DHT22;1868;48.918;9.438;2022-12-18T03:39:14;-10.80;97.40
3705;DHT22;1868;48.918;9.438;2022-12-18T03:41:52;-10.80;97.40
3705;DHT22;1868;48.918;9.438;2022-12-18T03:44:47;-10.80;97.40
3705;DHT22;1868;48.918;9.438;2022-12-18T03:47:26;-10.90;97.40
3705;DHT22;1868;48.918;9.438;2022-12-18T03:50:06;-11.00;97.40
3705;DHT22;1868;48.918;9.438;2022-12-18T03:52:46;-11.00;97.40
3705;DHT22;1868;48.918;9.438;2022-12-18T03:55:18;-11.00;97.40
3705;DHT22;1868;48.918;9.438;2022-12-18T03:57:54;-11.00;97.40
3705;DHT22;1868;48.918;9.438;2022-12-18T04:00:26;-11.10;97.40
3705;DHT22;1868;48.918;9.438;2022-12-18T04:03:04;-11.10;97.40
3705;DHT22;1868;48.918;9.438;2022-12-18T04:05:41;-11.20;97.40
3705;DHT22;1868;48.918;9.438;2022-12-18T04:08:12;-11.20;97.40
3705;DHT22;1868;48.918;9.438;2022-12-18T04:10:47;-11.20;97.40
3705;DHT22;1868;48.918;9.438;2022-12-18T04:13:21;-11.20;97.40
3705;DHT22;1868;48.918;9.438;2022-12-18T04:15:52;-11.30;97.40
3705;DHT22;1868;48.918;9.438;2022-12-18T04:18:22;-11.30;97.40
3705;DHT22;1868;48.918;9.438;2022-12-18T04:20:51;-11.30;97.40
3705;DHT22;1868;48.918;9.438;2022-12-18T04:23:20;-11.40;97.40
3705;DHT22;1868;48.918;9.438;2022-12-18T04:25:48;-11.40;97.40
3705;DHT22;1868;48.918;9.438;2022-12-18T04:28:26;-11.40;97.40
3705;DHT22;1868;48.918;9.438;2022-12-18T04:30:56;-11.40;97.40
3705;DHT22;1868;48.918;9.438;2022-12-18T04:33:24;-11.40;97.40
3705;DHT22;1868;48.918;9.438;2022-12-18T04:35:53;-11.40;97.40
3705;DHT22;1868;48.918;9.438;2022-12-18T04:38:21;-11.50;97.40
3705;DHT22;1868;48.918;9.438;2022-12-18T04:40:57;-11.50;97.40
3705;DHT22;1868;48.918;9.438;2022-12-18T04:43:26;-11.40;97.40
3705;DHT22;1868;48.918;9.438;2022-12-18T04:46:02;-11.40;97.40
3705;DHT22;1868;48.918;9.438;2022-12-18T04:48:32;-11.40;97.40
3705;DHT22;1868;48.918;9.438;2022-12-18T04:51:01;-11.40;97.40
3705;DHT22;1868;48.918;9.438;2022-12-18T04:53:30;-11.40;97.40
3705;DHT22;1868;48.918;9.438;2022-12-18T04:56:04;-11.30;97.40
3705;DHT22;1868;48.918;9.438;2022-12-18T04:58:33;-11.40;97.40
3705;DHT22;1868;48.918;9.438;2022-12-18T05:01:03;-11.40;97.40
3705;DHT22;1868;48.918;9.438;2022-12-18T05:03:31;-11.40;97.40
3705;DHT22;1868;48.918;9.438;2022-12-18T05:06:00;-11.40;97.40
3705;DHT22;1868;48.918;9.438;2022-12-18T05:08:28;-11.40;97.40
3705;DHT22;1868;48.918;9.438;2022-12-18T05:11:01;-11.40;97.40
3705;DHT22;1868;48.918;9.438;2022-12-18T05:13:31;-11.40;97.40
3705;DHT22;1868;48.918;9.438;2022-12-18T05:16:00;-11.50;97.40
3705;DHT22;1868;48.918;9.438;2022-12-18T05:18:30;-11.50;97.40
3705;DHT22;1868;48.918;9.438;2022-12-18T05:20:58;-11.60;97.40
3705;DHT22;1868;48.918;9.438;2022-12-18T05:23:27;-11.60;97.40
3705;DHT22;1868;48.918;9.438;2022-12-18T05:25:57;-11.50;97.40
3705;DHT22;1868;48.918;9.438;2022-12-18T05:28:28;-11.50;97.40
3705;DHT22;1868;48.918;9.438;2022-12-18T05:31:00;-11.40;97.40
3705;DHT22;1868;48.918;9.438;2022-12-18T05:33:32;-11.30;97.40
3705;DHT22;1868;48.918;9.438;2022-12-18T05:36:03;-11.30;97.40
3705;DHT22;1868;48.918;9.438;2022-12-18T05:38:35;-11.10;97.40
3705;DHT22;1868;48.918;9.438;2022-12-18T05:41:04;-11.00;97.40
3705;DHT22;1868;48.918;9.438;2022-12-18T05:43:34;-10.90;97.40
3705;DHT22;1868;48.918;9.438;2022-12-18T05:46:05;-10.80;97.40
3705;DHT22;1868;48.918;9.438;2022-12-18T05:48:36;-10.70;97.40
3705;DHT22;1868;48.918;9.438;2022-12-18T05:51:06;-10.60;97.40
3705;DHT22;1868;48.918;9.438;2022-12-18T05:53:36;-10.50;97.40
3705;DHT22;1868;48.918;9.438;2022-12-18T05:56:07;-10.50;97.40
3705;DHT22;1868;48.918;9.438;2022-12-18T05:58:37;-10.40;97.40
3705;DHT22;1868;48.918;9.438;2022-12-18T06:01:11;-10.40;97.40
3705;DHT22;1868;48.918;9.438;2022-12-18T06:03:42;-10.30;97.40
3705;DHT22;1868;48.918;9.438;2022-12-18T06:06:15;-10.40;97.40
3705;DHT22;1868;48.918;9.438;2022-12-18T06:08:44;-10.40;97.40
3705;DHT22;1868;48.918;9.438;2022-12-18T06:11:13;-10.40;97.40
3705;DHT22;1868;48.918;9.438;2022-12-18T06:13:43;-10.40;97.40
3705;DHT22;1868;48.918;9.438;2022-12-18T06:16:12;-10.40;97.40
3705;DHT22;1868;48.918;9.438;2022-12-18T06:18:41;-10.40;97.40
3705;DHT22;1868;48.918;9.438;2022-12-18T06:21:10;-10.30;97.40
3705;DHT22;1868;48.918;9.438;2022-12-18T06:23:38;-10.30;97.40
3705;DHT22;1868;48.918;9.438;2022-12-18T06:26:08;-10.30;97.40
3705;DHT22;1868;48.918;9.438;2022-12-18T06:28:39;-10.20;97.40
3705;DHT22;1868;48.918;9.438;2022-12-18T06:31:08;-10.20;97.40
3705;DHT22;1868;48.918;9.438;2022-12-18T06:33:37;-10.10;97.40
3705;DHT22;1868;48.918;9.438;2022-12-18T06:36:09;-10.10;97.40
3705;DHT22;1868;48.918;9.438;2022-12-18T06:38:41;-10.10;97.40
3705;DHT22;1868;48.918;9.438;2022-12-18T06:41:11;-10.10;97.40
3705;DHT22;1868;48.918;9.438;2022-12-18T06:43:41;-10.10;97.40
3705;DHT22;1868;48.918;9.438;2022-12-18T06:46:10;-10.20;97.40
3705;DHT22;1868;48.918;9.438;2022-12-18T06:48:39;-10.20;97.40
3705;DHT22;1868;48.918;9.438;2022-12-18T06:51:08;-10.30;97.40
3705;DHT22;1868;48.918;9.438;2022-12-18T06:53:36;-10.40;97.40
3705;DHT22;1868;48.918;9.438;2022-12-18T06:56:07;-10.40;97.40
3705;DHT22;1868;48.918;9.438;2022-12-18T06:58:37;-10.30;97.40
3705;DHT22;1868;48.918;9.438;2022-12-18T07:01:07;-10.30;97.40
3705;DHT22;1868;48.918;9.438;2022-12-18T07:03:38;-10.30;97.40
3705;DHT22;1868;48.918;9.438;2022-12-18T07:06:14;-10.30;97.40
3705;DHT22;1868;48.918;9.438;2022-12-18T07:08:45;-10.30;97.40
3705;DHT22;1868;48.918;9.438;2022-12-18T07:11:13;-10.30;97.40
3705;DHT22;1868;48.918;9.438;2022-12-18T07:13:42;-10.20;97.40
3705;DHT22;1868;48.918;9.438;2022-12-18T07:16:12;-10.10;97.40
3705;DHT22;1868;48.918;9.438;2022-12-18T07:18:49;-10.20;97.40
3705;DHT22;1868;48.918;9.438;2022-12-18T07:21:20;-10.40;97.40
3705;DHT22;1868;48.918;9.438;2022-12-18T07:23:48;-10.40;97.40
3705;DHT22;1868;48.918;9.438;2022-12-18T07:26:19;-10.40;97.40
3705;DHT22;1868;48.918;9.438;2022-12-18T07:28:48;-10.40;97.40
3705;DHT22;1868;48.918;9.438;2022-12-18T07:31:18;-10.30;97.40
3705;DHT22;1868;48.918;9.438;2022-12-18T07:33:49;-10.30;97.40
3705;DHT22;1868;48.918;9.438;2022-12-18T07:36:23;-10.20;97.40
3705;DHT22;1868;48.918;9.438;2022-12-18T07:38:51;-10.20;97.40
3705;DHT22;1868;48.918;9.438;2022-12-18T07:41:20;-10.20;97.40
3705;DHT22;1868;48.918;9.438;2022-12-18T07:43:48;-10.20;97.40
3705;DHT22;1868;48.918;9.438;2022-12-18T07:46:17;-10.20;97.40
3705;DHT22;1868;48.918;9.438;2022-12-18T07:48:46;-10.00;97.40
3705;DHT22;1868;48.918;9.438;2022-12-18T07:51:16;-9.90;97.40
3705;DHT22;1868;48.918;9.438;2022-12-18T07:53:47;-9.90;97.40
3705;DHT22;1868;48.918;9.438;2022-12-18T07:56:19;-9.80;97.40
3705;DHT22;1868;48.918;9.438;2022-12-18T07:58:54;-9.80;97.40
3705;DHT22;1868;48.918;9.438;2022-12-18T08:01:22;-9.70;97.40
3705;DHT22;1868;48.918;9.438;2022-12-18T08:03:51;-9.70;97.40
3705;DHT22;1868;48.918;9.438;2022-12-18T08:06:19;-9.80;97.40
3705;DHT22;1868;48.918;9.438;2022-12-18T08:08:52;-9.70;97.40
3705;DHT22;1868;48.918;9.438;2022-12-18T08:11:21;-9.50;97.40
3705;DHT22;1868;48.918;9.438;2022-12-18T08:13:50;-9.40;97.40
3705;DHT22;1868;48.918;9.438;2022-12-18T08:16:18;-8.90;97.40
3705;DHT22;1868;48.918;9.438;2022-12-18T08:18:48;-8.60;97.40
3705;DHT22;1868;48.918;9.438;2022-12-18T08:21:18;-8.50;97.40
3705;DHT22;1868;48.918;9.438;2022-12-18T08:23:50;-8.50;97.40
3705;DHT22;1868;48.918;9.438;2022-12-18T08:26:21;-8.40;97.40
3705;DHT22;1868;48.918;9.438;2022-12-18T08:28:50;-8.40;97.40
3705;DHT22;1868;48.918;9.438;2022-12-18T08:31:19;-8.40;97.40
3705;DHT22;1868;48.918;9.438;2022-12-18T08:33:50;-8.50;97.40
3705;DHT22;1868;48.918;9.438;2022-12-18T08:36:20;-8.40;97.40
3705;DHT22;1868;48.918;9.438;2022-12-18T08:38:49;-8.30;97.40
3705;DHT22;1868;48.918;9.438;2022-12-18T08:41:20;-8.20;97.40
3705;DHT22;1868;48.918;9.438;2022-12-18T08:43:49;-8.10;97.40
3705;DHT22;1868;48.918;9.438;2022-12-18T08:46:37;-8.00;97.40
3705;DHT22;1868;48.918;9.438;2022-12-18T08:49:07;-7.90;97.40
3705;DHT22;1868;48.918;9.438;2022-12-18T08:51:36;-7.70;97.40
3705;DHT22;1868;48.918;9.438;2022-12-18T08:54:06;-7.60;97.40
3705;DHT22;1868;48.918;9.438;2022-12-18T08:56:34;-7.50;97.40
3705;DHT22;1868;48.918;9.438;2022-12-18T08:59:03;-7.30;97.40
3705;DHT22;1868;48.918;9.438;2022-12-18T09:01:32;-7.20;97.40
3705;DHT22;1868;48.918;9.438;2022-12-18T09:04:01;-7.10;97.40
3705;DHT22;1868;48.918;9.438;2022-12-18T09:06:30;-7.00;97.40
3705;DHT22;1868;48.918;9.438;2022-12-18T09:08:59;-6.90;97.40
3705;DHT22;1868;48.918;9.438;2022-12-18T09:11:32;-6.80;97.40
3705;DHT22;1868;48.918;9.438;2022-12-18T09:14:05;-6.80;97.40
3705;DHT22;1868;48.918;9.438;2022-12-18T09:16:35;-6.60;97.40
3705;DHT22;1868;48.918;9.438;2022-12-18T09:19:04;-6.50;97.40
3705;DHT22;1868;48.918;9.438;2022-12-18T09:21:34;-6.40;97.40
3705;DHT22;1868;48.918;9.438;2022-12-18T09:24:14;-6.30;97.40
3705;DHT22;1868;48.918;9.438;2022-12-18T09:26:45;-6.30;97.40
3705;DHT22;1868;48.918;9.438;2022-12-18T09:29:14;-6.10;97.40
3705;DHT22;1868;48.918;9.438;2022-12-18T09:31:45;-5.90;97.40
3705;DHT22;1868;48.918;9.438;2022-12-18T09:34:13;-5.70;97.40
3705;DHT22;1868;48.918;9.438;2022-12-18T09:36:41;-5.60;97.40
3705;DHT22;1868;48.918;9.438;2022-12-18T09:39:12;-5.50;97.40
3705;DHT22;1868;48.918;9.438;2022-12-18T09:41:45;-5.30;97.40
3705;DHT22;1868;48.918;9.438;2022-12-18T09:44:19;-5.20;97.40
3705;DHT22;1868;48.918;9.438;2022-12-18T09:46:55;-5.10;97.40
3705;DHT22;1868;48.918;9.438;2022-12-18T09:49:30;-5.00;97.40
3705;DHT22;1868;48.918;9.438;2022-12-18T09:52:02;-4.80;97.40
3705;DHT22;1868;48.918;9.438;2022-12-18T09:54:36;-4.70;97.40
3705;DHT22;1868;48.918;9.438;2022-12-18T09:57:13;-4.50;97.40
3705;DHT22;1868;48.918;9.438;2022-12-18T09:59:45;-4.40;97.40
3705;DHT22;1868;48.918;9.438;2022-12-18T10:02:18;-4.20;97.40
3705;DHT22;1868;48.918;9.438;2022-12-18T10:05:02;-4.20;97.40
3705;DHT22;1868;48.918;9.438;2022-12-18T10:07:46;-4.10;97.40
3705;DHT22;1868;48.918;9.438;2022-12-18T10:10:26;-4.00;97.40
3705;DHT22;1868;48.918;9.438;2022-12-18T10:13:09;-3.80;97.40
3705;DHT22;1868;48.918;9.438;2022-12-18T10:15:51;-3.60;97.40
3705;DHT22;1868;48.918;9.438;2022-12-18T10:18:33;-3.50;97.40
3705;DHT22;1868;48.918;9.438;2022-12-18T10:21:10;-3.40;97.40
3705;DHT22;1868;48.918;9.438;2022-12-18T10:23:47;-3.20;97.40
3705;DHT22;1868;48.918;9.438;2022-12-18T10:26:19;-3.10;97.40
3705;DHT22;1868;48.918;9.438;2022-12-18T10:28:51;-2.90;97.40
3705;DHT22;1868;48.918;9.438;2022-12-18T10:31:22;-2.80;97.40
3705;DHT22;1868;48.918;9.438;2022-12-18T10:33:51;-2.60;97.40
3705;DHT22;1868;48.918;9.438;2022-12-18T10:36:20;-2.50;97.40
3705;DHT22;1868;48.918;9.438;2022-12-18T10:38:49;-2.40;97.40
3705;DHT22;1868;48.918;9.438;2022-12-18T10:41:25;-2.30;97.40
3705;DHT22;1868;48.918;9.438;2022-12-18T10:44:16;-2.20;97.40
3705;DHT22;1868;48.918;9.438;2022-12-18T10:46:46;-2.10;97.40
3705;DHT22;1868;48.918;9.438;2022-12-18T10:49:21;-2.00;97.40
3705;DHT22;1868;48.918;9.438;2022-12-18T10:51:51;-2.00;97.40
3705;DHT22;1868;48.918;9.438;2022-12-18T10:54:34;-1.80;97.40
3705;DHT22;1868;48.918;9.438;2022-12-18T10:57:16;-1.60;97.40
3705;DHT22;1868;48.918;9.438;2022-12-18T10:59:52;-1.50;97.40
3705;DHT22;1868;48.918;9.438;2022-12-18T11:02:33;-1.40;97.40
3705;DHT22;1868;48.918;9.438;2022-12-18T11:05:07;-1.30;97.40
3705;DHT22;1868;48.918;9.438;2022-12-18T11:07:52;-1.10;97.40
3705;DHT22;1868;48.918;9.438;2022-12-18T11:10:22;-1.00;97.40
3705;DHT22;1868;48.918;9.438;2022-12-18T11:12:55;-0.80;97.40
3705;DHT22;1868;48.918;9.438;2022-12-18T11:15:27;-0.70;97.40
3705;DHT22;1868;48.918;9.438;2022-12-18T11:17:57;-0.70;97.40
3705;DHT22;1868;48.918;9.438;2022-12-18T11:20:31;-0.50;97.40
3705;DHT22;1868;48.918;9.438;2022-12-18T11:23:01;-0.30;97.40
3705;DHT22;1868;48.918;9.438;2022-12-18T11:25:32;-0.20;97.40
3705;DHT22;1868;48.918;9.438;2022-12-18T11:28:04;-0.10;97.40
3705;DHT22;1868;48.918;9.438;2022-12-18T11:30:36;0.00;97.40
3705;DHT22;1868;48.918;9.438;2022-12-18T11:33:08;0.10;97.40
3705;DHT22;1868;48.918;9.438;2022-12-18T11:35:42;0.10;97.40
3705;DHT22;1868;48.918;9.438;2022-12-18T11:38:20;0.00;97.40
3705;DHT22;1868;48.918;9.438;2022-12-18T11:40:55;0.00;97.40
3705;DHT22;1868;48.918;9.438;2022-12-18T11:43:29;0.00;97.40
3705;DHT22;1868;48.918;9.438;2022-12-18T11:46:03;0.10;97.40
3705;DHT22;1868;48.918;9.438;2022-12-18T11:48:38;0.10;97.40
3705;DHT22;1868;48.918;9.438;2022-12-18T11:51:15;0.20;97.40
3705;DHT22;1868;48.918;9.438;2022-12-18T11:53:53;0.10;97.40
3705;DHT22;1868;48.918;9.438;2022-12-18T11:56:29;0.20;97.40
3705;DHT22;1868;48.918;9.438;2022-12-18T11:59:12;0.10;97.40
3705;DHT22;1868;48.918;9.438;2022-12-18T12:01:50;0.20;97.40
3705;DHT22;1868;48.918;9.438;2022-12-18T12:04:53;0.30;97.40
3705;DHT22;1868;48.918;9.438;2022-12-18T12:07:38;0.40;97.40
3705;DHT22;1868;48.918;9.438;2022-12-18T12:10:20;0.50;97.40
3705;DHT22;1868;48.918;9.438;2022-12-18T12:13:02;0.50;97.40
3705;DHT22;1868;48.918;9.438;2022-12-18T12:16:01;0.40;97.40
3705;DHT22;1868;48.918;9.438;2022-12-18T12:18:50;0.40;97.40
3705;DHT22;1868;48.918;9.438;2022-12-18T12:21:31;0.50;97.40
3705;DHT22;1868;48.918;9.438;2022-12-18T12:24:15;0.50;97.40
3705;DHT22;1868;48.918;9.438;2022-12-18T12:26:57;0.60;97.40
3705;DHT22;1868;48.918;9.438;2022-12-18T12:29:42;0.60;97.40
3705;DHT22;1868;48.918;9.438;2022-12-18T12:32:26;0.70;97.40
3705;DHT22;1868;48.918;9.438;2022-12-18T12:35:12;0.70;97.40
3705;DHT22;1868;48.918;9.438;2022-12-18T12:37:56;0.80;97.40
3705;DHT22;1868;48.918;9.438;2022-12-18T12:40:34;0.90;97.40
3705;DHT22;1868;48.918;9.438;2022-12-18T12:43:31;0.90;97.40
3705;DHT22;1868;48.918;9.438;2022-12-18T12:46:04;1.00;97.40
3705;DHT22;1868;48.918;9.438;2022-12-18T12:48:41;1.00;97.40
3705;DHT22;1868;48.918;9.438;2022-12-18T12:51:17;0.90;97.40
3705;DHT22;1868;48.918;9.438;2022-12-18T12:53:48;0.90;97.40
3705;DHT22;1868;48.918;9.438;2022-12-18T12:56:18;0.90;97.40
3705;DHT22;1868;48.918;9.438;2022-12-18T12:58:58;1.00;97.40
3705;DHT22;1868;48.918;9.438;2022-12-18T13:01:35;1.10;97.40
3705;DHT22;1868;48.918;9.438;2022-12-18T13:04:15;1.00;97.40
3705;DHT22;1868;48.918;9.438;2022-12-18T13:06:53;1.00;97.40
3705;DHT22;1868;48.918;9.438;2022-12-18T13:09:30;1.10;97.40
3705;DHT22;1868;48.918;9.438;2022-12-18T13:12:03;1.00;97.40
3705;DHT22;1868;48.918;9.438;2022-12-18T13:14:51;1.00;97.40
3705;DHT22;1868;48.918;9.438;2022-12-18T13:17:30;1.10;97.40
3705;DHT22;1868;48.918;9.438;2022-12-18T13:20:11;1.10;97.40
3705;DHT22;1868;48.918;9.438;2022-12-18T13:22:46;1.20;97.40
3705;DHT22;1868;48.918;9.438;2022-12-18T13:25:32;1.10;97.40
3705;DHT22;1868;48.918;9.438;2022-12-18T13:28:07;1.10;97.40
3705;DHT22;1868;48.918;9.438;2022-12-18T13:30:55;1.10;97.40
3705;DHT22;1868;48.918;9.438;2022-12-18T13:33:38;1.10;97.40
3705;DHT22;1868;48.918;9.438;2022-12-18T13:36:31;1.10;97.40
3705;DHT22;1868;48.918;9.438;2022-12-18T13:39:32;1.10;97.40
3705;DHT22;1868;48.918;9.438;2022-12-18T13:42:39;1.00;97.40
3705;DHT22;1868;48.918;9.438;2022-12-18T13:45:47;1.00;97.40
3705;DHT22;1868;48.918;9.438;2022-12-18T13:48:20;0.90;97.40
3705;DHT22;1868;48.918;9.438;2022-12-18T13:50:56;0.80;97.40
3705;DHT22;1868;48.918;9.438;2022-12-18T13:53:30;0.70;97.40
3705;DHT22;1868;48.918;9.438;2022-12-18T13:56:05;0.60;97.40
3705;DHT22;1868;48.918;9.438;2022-12-18T13:58:34;0.60;97.40
3705;DHT22;1868;48.918;9.438;2022-12-18T14:01:02;0.70;97.40
3705;DHT22;1868;48.918;9.438;2022-12-18T14:03:31;0.60;97.40
3705;DHT22;1868;48.918;9.438;2022-12-18T14:06:02;0.60;97.40
3705;DHT22;1868;48.918;9.438;2022-12-18T14:08:36;0.60;97.40
3705;DHT22;1868;48.918;9.438;2022-12-18T14:11:19;0.60;97.40
3705;DHT22;1868;48.918;9.438;2022-12-18T14:13:49;0.60;97.40
3705;DHT22;1868;48.918;9.438;2022-12-18T14:16:18;0.50;97.40
3705;DHT22;1868;48.918;9.438;2022-12-18T14:18:48;0.50;97.40
3705;DHT22;1868;48.918;9.438;2022-12-18T14:21:26;0.50;97.40
3705;DHT22;1868;48.918;9.438;2022-12-18T14:24:12;0.30;97.40
3705;DHT22;1868;48.918;9.438;2022-12-18T14:26:47;0.30;97.40
3705;DHT22;1868;48.918;9.438;2022-12-18T14:29:25;0.30;97.40
3705;DHT22;1868;48.918;9.438;2022-12-18T14:32:05;0.20;97.40
3705;DHT22;1868;48.918;9.438;2022-12-18T14:34:44;0.10;97.40
3705;DHT22;1868;48.918;9.438;2022-12-18T14:37:15;0.00;97.40
3705;DHT22;1868;48.918;9.438;2022-12-18T14:39:56;-0.10;97.40
3705;DHT22;1868;48.918;9.438;2022-12-18T14:42:27;-0.20;97.40
3705;DHT22;1868;48.918;9.438;2022-12-18T14:45:33;-0.40;97.40
3705;DHT22;1868;48.918;9.438;2022-12-18T14:48:15;-0.50;97.40
3705;DHT22;1868;48.918;9.438;2022-12-18T14:50:58;-0.50;97.40
3705;DHT22;1868;48.918;9.438;2022-12-18T14:53:33;-0.50;97.40
3705;DHT22;1868;48.918;9.438;2022-12-18T14:56:18;-0.70;97.40
3705;DHT22;1868;48.918;9.438;2022-12-18T14:58:51;-0.70;97.40
3705;DHT22;1868;48.918;9.438;2022-12-18T15:01:24;-0.90;97.40
3705;DHT22;1868;48.918;9.438;2022-12-18T15:03:55;-1.00;97.40
3705;DHT22;1868;48.918;9.438;2022-12-18T15:06:31;-1.10;97.40
3705;DHT22;1868;48.918;9.438;2022-12-18T15:09:03;-1.30;97.40
3705;DHT22;1868;48.918;9.438;2022-12-18T15:11:45;-1.30;97.40
3705;DHT22;1868;48.918;9.438;2022-12-18T15:14:31;-1.40;97.40
3705;DHT22;1868;48.918;9.438;2022-12-18T15:17:04;-1.50;97.40
3705;DHT22;1868;48.918;9.438;2022-12-18T15:19:37;-1.50;97.40
3705;DHT22;1868;48.918;9.438;2022-12-18T15:22:18;-1.70;97.40
3705;DHT22;1868;48.918;9.438;2022-12-18T15:24:52;-1.70;97.40
3705;DHT22;1868;48.918;9.438;2022-12-18T15:27:27;-1.80;97.40
3705;DHT22;1868;48.918;9.438;2022-12-18T15:30:19;-1.80;97.40
3705;DHT22;1868;48.918;9.438;2022-12-18T15:32:50;-1.90;97.40
3705;DHT22;1868;48.918;9.438;2022-12-18T15:35:21;-1.90;97.40
3705;DHT22;1868;48.918;9.438;2022-12-18T15:37:52;-1.90;97.40
3705;DHT22;1868;48.918;9.438;2022-12-18T15:40:22;-2.00;97.40
3705;DHT22;1868;48.918;9.438;2022-12-18T15:42:53;-2.10;97.40
3705;DHT22;1868;48.918;9.438;2022-12-18T15:45:52;-2.10;97.40
3705;DHT22;1868;48.918;9.438;2022-12-18T15:48:21;-2.10;97.40
3705;DHT22;1868;48.918;9.438;2022-12-18T15:50:50;-2.10;97.40
3705;DHT22;1868;48.918;9.438;2022-12-18T15:53:20;-2.20;97.40
3705;DHT22;1868;48.918;9.438;2022-12-18T15:55:48;-2.20;97.40
3705;DHT22;1868;48.918;9.438;2022-12-18T15:58:34;-2.30;97.40
3705;DHT22;1868;48.918;9.438;2022-12-18T16:01:04;-2.40;97.40
3705;DHT22;1868;48.918;9.438;2022-12-18T16:03:32;-2.40;97.40
3705;DHT22;1868;48.918;9.438;2022-12-18T16:06:04;-2.50;97.40
3705;DHT22;1868;48.918;9.438;2022-12-18T16:08:32;-2.40;97.40
3705;DHT22;1868;48.918;9.438;2022-12-18T16:11:01;-2.50;97.40
3705;DHT22;1868;48.918;9.438;2022-12-18T16:13:30;-2.60;97.40
3705;DHT22;1868;48.918;9.438;2022-12-18T16:15:58;-2.60;97.40
3705;DHT22;1868;48.918;9.438;2022-12-18T16:18:28;-2.60;97.40
3705;DHT22;1868;48.918;9.438;2022-12-18T16:20:56;-2.60;97.40
3705;DHT22;1868;48.918;9.438;2022-12-18T16:23:24;-2.70;97.40
3705;DHT22;1868;48.918;9.438;2022-12-18T16:25:53;-2.70;97.40
3705;DHT22;1868;48.918;9.438;2022-12-18T16:28:22;-2.70;97.40
3705;DHT22;1868;48.918;9.438;2022-12-18T16:30:50;-2.70;97.40
3705;DHT22;1868;48.918;9.438;2022-12-18T16:33:18;-2.70;97.40
3705;DHT22;1868;48.918;9.438;2022-12-18T16:35:52;-2.70;97.40
3705;DHT22;1868;48.918;9.438;2022-12-18T16:38:20;-2.80;97.40